createdAt,value
2023-01-20T00:00:32.412Z,17.57
2023-01-20T00:02:59.953Z,18.20
2023-01-20T00:05:28.797Z,13.63
2023-01-20T00:07:56.267Z,16.97
2023-01-20T00:10:23.760Z,18.20
2023-01-20T00:12:51.233Z,18.10
2023-01-20T00:15:18.727Z,16.73
2023-01-20T00:17:46.234Z,20.73
2023-01-20T00:20:13.975Z,17.87
2023-01-20T00:22:42.828Z,17.07
2023-01-20T00:25:11.786Z,13.47
2023-01-20T00:27:39.665Z,15.03
2023-01-20T00:30:08.633Z,15.23
2023-01-20T00:32:39.053Z,12.53
2023-01-20T00:35:07.738Z,17.40
2023-01-20T00:37:35.224Z,16.77
2023-01-20T00:40:04.497Z,15.87
2023-01-20T00:42:32.029Z,15.47
2023-01-20T00:44:59.780Z,15.77
2023-01-20T00:47:27.248Z,14.93
2023-01-20T00:49:54.792Z,13.80
2023-01-20T00:52:22.507Z,13.20
2023-01-20T00:54:50.008Z,15.07
2023-01-20T00:57:18.860Z,15.10
2023-01-20T00:59:46.351Z,18.03
2023-01-20T01:02:13.955Z,16.53
2023-01-20T01:04:41.677Z,13.77
2023-01-20T01:07:09.181Z,13.73
2023-01-20T01:09:36.694Z,16.57
2023-01-20T01:12:04.429Z,15.33
2023-01-20T01:14:33.554Z,11.10
2023-01-20T01:17:01.067Z,11.83
2023-01-20T01:19:28.539Z,14.70
2023-01-20T01:21:56.026Z,12.47
2023-01-20T01:24:23.528Z,12.97
2023-01-20T01:26:51.010Z,10.03
2023-01-20T01:29:18.530Z,13.80
2023-01-20T01:31:47.357Z,12.33
2023-01-20T01:34:15.205Z,10.60
2023-01-20T01:36:42.979Z,12.20
2023-01-20T01:39:10.560Z,10.57
2023-01-20T01:41:38.116Z,10.83
2023-01-20T01:44:09.286Z,13.77
2023-01-20T01:46:37.208Z,12.40
2023-01-20T01:49:11.190Z,12.87
2023-01-20T01:51:42.299Z,11.03
2023-01-20T01:54:15.831Z,12.63
2023-01-20T01:56:45.530Z,14.27
2023-01-20T01:59:16.080Z,10.37
2023-01-20T02:01:49.383Z,11.23
2023-01-20T02:04:21.972Z,10.93
2023-01-20T02:06:52.511Z,10.00
2023-01-20T02:09:20.161Z,11.97
2023-01-20T02:11:52.167Z,10.10
2023-01-20T02:14:22.641Z,11.80
2023-01-20T02:17:00.040Z,11.60
2023-01-20T02:20:02.902Z,11.40
2023-01-20T02:22:41.563Z,11.73
2023-01-20T02:25:45.129Z,13.03
2023-01-20T02:28:52.700Z,13.13
2023-01-20T02:32:09.923Z,11.30
2023-01-20T02:34:45.232Z,14.83
2023-01-20T02:37:16.452Z,12.40
2023-01-20T02:39:52.223Z,12.40
2023-01-20T02:42:25.417Z,12.60
2023-01-20T02:44:57.274Z,13.57
2023-01-20T02:47:30.946Z,12.50
2023-01-20T02:50:07.727Z,12.53
2023-01-20T02:52:39.425Z,13.33
2023-01-20T02:55:10.403Z,15.17
2023-01-20T02:57:47.719Z,12.70
2023-01-20T03:00:18.974Z,14.53
2023-01-20T03:02:51.582Z,15.43
2023-01-20T03:05:23.691Z,12.73
2023-01-20T03:07:54.245Z,13.97
2023-01-20T03:10:25.656Z,13.20
2023-01-20T03:12:57.675Z,14.63
2023-01-20T03:15:30.870Z,13.87
2023-01-20T03:17:58.989Z,15.20
2023-01-20T03:20:27.857Z,15.07
2023-01-20T03:22:55.473Z,15.50
2023-01-20T03:25:24.045Z,13.87
2023-01-20T03:27:51.533Z,16.33
2023-01-20T03:30:19.886Z,13.53
2023-01-20T03:32:50.789Z,14.23
2023-01-20T03:35:18.942Z,14.37
2023-01-20T03:37:47.819Z,15.30
2023-01-20T03:40:16.469Z,14.30
2023-01-20T03:42:53.214Z,16.10
2023-01-20T03:45:30.584Z,14.83
2023-01-20T03:48:04.750Z,14.80
2023-01-20T03:50:38.385Z,15.00
2023-01-20T03:53:19.480Z,17.20
2023-01-20T03:55:50.875Z,14.53
2023-01-20T03:58:23.174Z,15.37
2023-01-20T04:00:52.813Z,15.57
2023-01-20T04:03:24.296Z,16.80
2023-01-20T04:05:53.007Z,18.80
2023-01-20T04:08:25.494Z,15.63
2023-01-20T04:10:55.660Z,17.67
2023-01-20T04:13:23.219Z,17.03
2023-01-20T04:15:51.163Z,18.20
2023-01-20T04:18:20.838Z,16.77
2023-01-20T04:20:51.378Z,18.77
2023-01-20T04:23:26.026Z,18.57
2023-01-20T04:25:53.532Z,15.00
2023-01-20T04:28:21.008Z,16.07
2023-01-20T04:30:49.081Z,17.63
2023-01-20T04:33:16.629Z,14.93
2023-01-20T04:35:44.142Z,16.70
2023-01-20T04:38:11.656Z,15.60
2023-01-20T04:40:40.608Z,16.73
2023-01-20T04:43:09.984Z,15.93
2023-01-20T04:45:37.488Z,17.67
2023-01-20T04:48:07.121Z,16.70
2023-01-20T04:50:34.963Z,17.03
2023-01-20T04:53:02.424Z,15.00
2023-01-20T04:55:29.900Z,16.90
2023-01-20T04:57:58.714Z,16.00
2023-01-20T05:00:26.208Z,18.73
2023-01-20T05:02:53.830Z,15.87
2023-01-20T05:05:21.364Z,16.27
2023-01-20T05:07:52.938Z,15.77
2023-01-20T05:10:20.486Z,17.17
2023-01-20T05:12:48.056Z,16.00
2023-01-20T05:15:17.402Z,17.07
2023-01-20T05:17:44.984Z,15.57
2023-01-20T05:20:12.731Z,18.83
2023-01-20T05:22:40.228Z,18.40
2023-01-20T05:25:08.569Z,16.13
2023-01-20T05:27:36.233Z,17.33
2023-01-20T05:30:03.844Z,18.90
2023-01-20T05:32:32.666Z,16.40
2023-01-20T05:35:00.373Z,19.67
2023-01-20T05:37:27.837Z,16.17
2023-01-20T05:39:55.381Z,18.47
2023-01-20T05:42:22.909Z,15.63
2023-01-20T05:44:50.400Z,18.03
2023-01-20T05:47:17.926Z,15.83
2023-01-20T05:49:46.775Z,15.50
2023-01-20T05:52:14.278Z,16.23
2023-01-20T05:54:41.736Z,16.13
2023-01-20T05:57:09.421Z,15.17
2023-01-20T05:59:36.978Z,16.80
2023-01-20T06:02:04.473Z,15.70
2023-01-20T06:04:31.972Z,16.57
2023-01-20T06:07:00.788Z,17.23
2023-01-20T06:09:28.300Z,16.60
2023-01-20T06:11:55.794Z,16.50
2023-01-20T06:14:23.300Z,16.40
2023-01-20T06:16:50.944Z,18.03
2023-01-20T06:19:18.449Z,17.07
2023-01-20T06:21:46.957Z,17.37
2023-01-20T06:24:16.248Z,17.13
2023-01-20T06:26:43.733Z,19.27
2023-01-20T06:29:11.269Z,18.00
2023-01-20T06:31:38.852Z,17.13
2023-01-20T06:34:06.388Z,15.67
2023-01-20T06:36:33.859Z,17.03
2023-01-20T06:39:01.389Z,17.20
2023-01-20T06:41:30.305Z,19.80
2023-01-20T06:43:58.039Z,15.93
2023-01-20T06:46:25.934Z,18.03
2023-01-20T06:49:00.031Z,20.33
2023-01-20T06:51:29.566Z,18.43
2023-01-20T06:53:57.838Z,19.33
2023-01-20T06:56:25.685Z,20.73
2023-01-20T06:58:54.502Z,20.57
2023-01-20T07:01:25.042Z,17.57
2023-01-20T07:03:53.187Z,21.60
2023-01-20T07:06:26.861Z,18.83
2023-01-20T07:08:54.642Z,20.43
2023-01-20T07:11:22.164Z,18.67
2023-01-20T07:13:49.657Z,24.13
2023-01-20T07:16:18.528Z,20.47
2023-01-20T07:18:49.190Z,21.20
2023-01-20T07:21:16.880Z,21.43
2023-01-20T07:23:44.635Z,20.70
2023-01-20T07:26:14.423Z,27.60
2023-01-20T07:28:41.999Z,24.97
2023-01-20T07:31:11.051Z,22.23
2023-01-20T07:33:40.021Z,23.60
2023-01-20T07:36:08.858Z,24.67
2023-01-20T07:38:36.699Z,22.20
2023-01-20T07:41:06.125Z,23.40
2023-01-20T07:43:34.072Z,26.17
2023-01-20T07:46:03.612Z,22.97
2023-01-20T07:48:33.081Z,26.70
2023-01-20T07:51:05.591Z,25.53
2023-01-20T07:53:35.251Z,24.20
2023-01-20T07:56:03.939Z,24.13
2023-01-20T07:58:31.747Z,24.97
2023-01-20T08:01:06.550Z,29.00
2023-01-20T08:03:34.065Z,27.93
2023-01-20T08:06:04.521Z,30.00
2023-01-20T08:08:32.627Z,26.93
2023-01-20T08:11:01.317Z,26.83
2023-01-20T08:13:29.188Z,28.83
2023-01-20T08:16:00.496Z,35.37
2023-01-20T08:18:28.089Z,32.10
2023-01-20T08:20:55.664Z,28.50
2023-01-20T08:23:24.526Z,31.43
2023-01-20T08:25:59.755Z,31.63
2023-01-20T08:28:27.886Z,31.70
2023-01-20T08:30:55.548Z,30.13
2023-01-20T08:33:23.092Z,30.80
2023-01-20T08:35:50.617Z,30.13
2023-01-20T08:38:18.107Z,30.03
2023-01-20T08:40:46.905Z,27.83
2023-01-20T08:43:15.823Z,23.90
2023-01-20T08:45:44.543Z,24.60
2023-01-20T08:48:12.032Z,21.73
2023-01-20T08:50:39.585Z,22.53
2023-01-20T08:53:07.083Z,22.37
2023-01-20T08:55:34.561Z,21.97
2023-01-20T08:58:03.421Z,19.53
2023-01-20T09:00:31.088Z,20.60
2023-01-20T09:02:58.589Z,23.07
2023-01-20T09:05:27.143Z,22.27
2023-01-20T09:07:54.637Z,20.87
2023-01-20T09:10:22.202Z,19.33
2023-01-20T09:12:49.732Z,20.43
2023-01-20T09:15:20.503Z,19.43
2023-01-20T09:17:48.043Z,21.37
2023-01-20T09:20:16.103Z,22.03
2023-01-20T09:22:43.611Z,23.53
2023-01-20T09:25:11.523Z,20.00
2023-01-20T09:27:38.993Z,21.33
2023-01-20T09:30:07.415Z,20.83
2023-01-20T09:32:36.228Z,23.27
2023-01-20T09:35:03.734Z,20.83
2023-01-20T09:37:48.796Z,22.80
2023-01-20T09:40:37.164Z,22.90
2023-01-20T09:43:26.482Z,20.50
2023-01-20T09:45:57.555Z,16.73
2023-01-20T09:48:51.413Z,16.00
2023-01-20T09:51:48.413Z,19.07
2023-01-20T09:54:21.479Z,19.90
2023-01-20T09:56:53.422Z,18.70
2023-01-20T09:59:25.868Z,20.87
2023-01-20T10:01:57.857Z,18.37
2023-01-20T10:04:33.821Z,21.37
2023-01-20T10:07:08.031Z,18.37
2023-01-20T10:09:42.066Z,31.60
2023-01-20T10:12:13.795Z,21.53
2023-01-20T10:14:45.799Z,22.60
2023-01-20T10:17:17.473Z,21.43
2023-01-20T10:19:50.913Z,21.17
2023-01-20T10:22:23.321Z,22.73
2023-01-20T10:24:56.391Z,21.73
2023-01-20T10:27:27.516Z,21.27
2023-01-20T10:30:00.136Z,23.20
2023-01-20T10:32:33.938Z,21.60
2023-01-20T10:35:10.805Z,27.17
2023-01-20T10:37:38.889Z,23.20
2023-01-20T10:40:16.660Z,27.57
2023-01-20T10:42:48.496Z,21.73
2023-01-20T10:45:26.402Z,20.57
2023-01-20T10:48:07.076Z,23.20
2023-01-20T10:50:57.061Z,25.97
2023-01-20T10:53:46.798Z,24.53
2023-01-20T10:56:32.865Z,22.63
2023-01-20T10:59:04.226Z,23.53
2023-01-20T11:01:31.786Z,21.17
2023-01-20T11:03:59.305Z,25.87
2023-01-20T11:06:28.491Z,22.20
2023-01-20T11:08:57.557Z,24.40
2023-01-20T11:11:26.733Z,20.40
2023-01-20T11:13:54.979Z,24.13
2023-01-20T11:16:25.175Z,22.20
2023-01-20T11:18:58.655Z,23.23
2023-01-20T11:21:29.756Z,20.57
2023-01-20T11:23:58.515Z,21.30
2023-01-20T11:26:28.805Z,21.60
2023-01-20T11:28:58.813Z,22.07
2023-01-20T11:31:37.858Z,18.23
2023-01-20T11:34:20.930Z,22.33
2023-01-20T11:36:50.121Z,20.90
2023-01-20T11:39:30.146Z,25.30
2023-01-20T11:42:13.142Z,22.93
2023-01-20T11:44:44.233Z,20.33
2023-01-20T11:47:23.467Z,19.67
2023-01-20T11:50:20.749Z,13.37
2023-01-20T11:52:49.549Z,14.70
2023-01-20T11:55:19.164Z,16.13
2023-01-20T11:57:52.024Z,13.03
2023-01-20T12:00:41.628Z,10.83
2023-01-20T12:03:32.158Z,11.97
2023-01-20T12:06:04.410Z,12.57
2023-01-20T12:08:42.146Z,9.50
2023-01-20T12:11:12.684Z,10.83
2023-01-20T12:13:59.532Z,7.47
2023-01-20T12:16:31.673Z,35.77
2023-01-20T12:19:04.687Z,10.87
2023-01-20T12:21:37.659Z,8.23
2023-01-20T12:24:19.531Z,8.07
2023-01-20T12:26:47.265Z,8.57
2023-01-20T12:29:20.387Z,7.53
2023-01-20T12:31:49.263Z,9.50
2023-01-20T12:34:21.202Z,7.80
2023-01-20T12:37:10.420Z,6.97
2023-01-20T12:40:04.308Z,7.43
2023-01-20T12:43:01.454Z,7.50
2023-01-20T12:45:46.031Z,7.17
2023-01-20T12:48:26.650Z,12.07
2023-01-20T12:51:06.561Z,11.23
2023-01-20T12:53:45.267Z,8.90
2023-01-20T12:56:25.812Z,10.73
2023-01-20T12:59:02.009Z,11.70
2023-01-20T13:01:41.005Z,12.93
2023-01-20T13:04:49.832Z,9.70
2023-01-20T13:07:31.726Z,9.43
2023-01-20T13:10:17.646Z,10.97
2023-01-20T13:12:52.880Z,7.43
2023-01-20T13:15:27.793Z,7.40
2023-01-20T13:18:14.902Z,7.10
2023-01-20T13:20:45.480Z,7.57
2023-01-20T13:23:16.209Z,13.83
2023-01-20T13:25:46.454Z,13.27
2023-01-20T13:28:19.257Z,8.37
2023-01-20T13:30:50.857Z,4.10
2023-01-20T13:33:31.396Z,6.57
2023-01-20T13:36:00.144Z,18.63
2023-01-20T13:38:30.875Z,7.40
2023-01-20T13:41:03.119Z,5.57
2023-01-20T13:43:53.195Z,8.73
2023-01-20T13:46:46.136Z,6.37
2023-01-20T13:49:47.155Z,9.07
2023-01-20T13:52:14.751Z,27.93
2023-01-20T13:54:44.999Z,91.50
2023-01-20T13:57:38.063Z,45.93
2023-01-20T14:00:24.898Z,19.10
2023-01-20T14:02:53.119Z,4.67
2023-01-20T14:05:30.359Z,8.23
2023-01-20T14:07:58.531Z,5.00
2023-01-20T14:10:26.798Z,7.03
2023-01-20T14:12:54.309Z,5.60
2023-01-20T14:15:36.826Z,8.23
2023-01-20T14:18:05.582Z,9.03
2023-01-20T14:20:33.420Z,7.97
2023-01-20T14:23:27.061Z,6.20
2023-01-20T14:25:59.324Z,10.53
2023-01-20T14:28:26.993Z,12.70
2023-01-20T14:31:34.032Z,5.87
2023-01-20T14:34:04.868Z,6.57
2023-01-20T14:36:34.000Z,13.13
2023-01-20T14:39:04.281Z,9.17
2023-01-20T14:41:46.233Z,9.40
2023-01-20T14:44:17.724Z,8.63
2023-01-20T14:46:48.576Z,16.77
2023-01-20T14:49:18.048Z,10.20
2023-01-20T14:51:47.541Z,21.30
2023-01-20T14:54:34.877Z,19.33
2023-01-20T14:57:13.441Z,10.27
2023-01-20T14:59:40.949Z,30.13
2023-01-20T15:02:20.023Z,12.20
2023-01-20T15:04:47.596Z,11.67
2023-01-20T15:07:20.366Z,11.43
2023-01-20T15:09:54.199Z,15.60
2023-01-20T15:12:37.798Z,14.83
2023-01-20T15:15:20.072Z,16.60
2023-01-20T15:18:21.425Z,21.37
2023-01-20T15:21:00.960Z,10.33
2023-01-20T15:23:38.080Z,14.13
2023-01-20T15:26:10.479Z,9.57
2023-01-20T15:28:43.926Z,8.97
2023-01-20T15:31:14.869Z,10.87
2023-01-20T15:33:42.957Z,6.00
2023-01-20T15:36:27.405Z,7.33
2023-01-20T15:38:55.171Z,9.50
2023-01-20T15:41:22.830Z,10.57
2023-01-20T15:43:52.326Z,8.10
2023-01-20T15:46:20.202Z,11.60
2023-01-20T15:48:48.105Z,13.43
2023-01-20T15:51:17.297Z,9.50
2023-01-20T15:53:46.964Z,8.10
2023-01-20T15:56:20.398Z,10.43
2023-01-20T15:58:48.801Z,9.17
2023-01-20T16:01:18.088Z,11.33
2023-01-20T16:03:45.801Z,9.40
2023-01-20T16:06:15.582Z,11.47
2023-01-20T16:08:46.097Z,15.97
2023-01-20T16:11:15.318Z,11.33
2023-01-20T16:13:42.984Z,12.70
2023-01-20T16:16:13.339Z,12.07
2023-01-20T16:18:41.357Z,13.30
2023-01-20T16:21:10.856Z,12.37
2023-01-20T16:23:38.377Z,14.10
2023-01-20T16:26:20.429Z,13.47
2023-01-20T16:28:47.921Z,14.13
2023-01-20T16:31:15.986Z,15.27
2023-01-20T16:33:43.618Z,13.27
2023-01-20T16:36:13.046Z,11.90
2023-01-20T16:38:40.603Z,14.10
2023-01-20T16:41:14.963Z,23.37
2023-01-20T16:43:44.231Z,17.47
2023-01-20T16:46:14.566Z,20.37
2023-01-20T16:48:42.280Z,13.13
2023-01-20T16:51:13.261Z,15.87
2023-01-20T16:53:40.990Z,15.03
2023-01-20T16:56:14.022Z,15.90
2023-01-20T16:58:41.711Z,18.30
2023-01-20T17:01:12.673Z,15.50
2023-01-20T17:03:40.313Z,20.23
2023-01-20T17:06:11.907Z,15.63
2023-01-20T17:08:39.450Z,16.47
2023-01-20T17:11:06.946Z,17.80
2023-01-20T17:13:34.451Z,20.17
2023-01-20T17:16:02.797Z,18.37
2023-01-20T17:18:31.637Z,23.47
2023-01-20T17:21:04.767Z,22.40
2023-01-20T17:23:32.435Z,22.93
2023-01-20T17:26:01.980Z,17.30
2023-01-20T17:28:29.551Z,30.97
2023-01-20T17:31:02.024Z,22.10
2023-01-20T17:33:31.270Z,22.10
2023-01-20T17:36:00.698Z,21.80
2023-01-20T17:38:28.724Z,23.30
2023-01-20T17:41:00.364Z,22.57
2023-01-20T17:43:32.397Z,26.03
2023-01-20T17:46:00.135Z,23.90
2023-01-20T17:48:27.715Z,27.17
2023-01-20T17:50:59.075Z,25.60
2023-01-20T17:53:27.207Z,28.37
2023-01-20T17:56:06.647Z,24.43
2023-01-20T17:58:39.807Z,22.80
2023-01-20T18:01:12.428Z,20.10
2023-01-20T18:03:41.949Z,21.30
2023-01-20T18:06:13.340Z,20.73
2023-01-20T18:08:41.301Z,22.30
2023-01-20T18:11:10.875Z,25.60
2023-01-20T18:13:39.073Z,25.73
2023-01-20T18:16:08.066Z,22.03
2023-01-20T18:18:35.626Z,23.37
2023-01-20T18:21:12.015Z,23.43
2023-01-20T18:23:40.162Z,20.93
2023-01-20T18:26:09.134Z,18.10
2023-01-20T18:28:37.997Z,21.77
2023-01-20T18:31:08.911Z,18.53
2023-01-20T18:33:39.647Z,23.83
2023-01-20T18:36:08.806Z,23.10
2023-01-20T18:38:42.920Z,20.90
2023-01-20T18:41:10.836Z,19.53
2023-01-20T18:43:39.183Z,18.67
2023-01-20T18:46:07.635Z,18.70
2023-01-20T18:48:38.475Z,17.83
2023-01-20T18:51:06.505Z,15.80
2023-01-20T18:53:34.237Z,17.87
2023-01-20T18:56:04.163Z,19.13
2023-01-20T18:58:31.720Z,18.23
2023-01-20T19:01:04.161Z,20.87
2023-01-20T19:03:31.709Z,20.97
2023-01-20T19:06:04.956Z,18.57
2023-01-20T19:08:32.798Z,25.73
2023-01-20T19:11:01.606Z,25.97
2023-01-20T19:13:30.688Z,34.30
2023-01-20T19:15:58.786Z,24.63
2023-01-20T19:18:26.776Z,24.60
2023-01-20T19:20:54.545Z,21.00
2023-01-20T19:23:22.203Z,20.33
2023-01-20T19:26:00.583Z,19.13
2023-01-20T19:28:28.136Z,22.33
2023-01-20T19:30:57.221Z,32.10
2023-01-20T19:33:24.757Z,21.47
2023-01-20T19:35:52.264Z,19.10
2023-01-20T19:38:19.764Z,27.87
2023-01-20T19:40:47.236Z,22.17
2023-01-20T19:43:14.738Z,26.90
2023-01-20T19:45:45.844Z,37.03
2023-01-20T19:48:15.036Z,39.33
2023-01-20T19:50:42.965Z,22.33
2023-01-20T19:53:10.621Z,33.80
2023-01-20T19:55:38.091Z,24.00
2023-01-20T19:58:06.247Z,23.30
2023-01-20T20:00:33.757Z,23.67
2023-01-20T20:03:02.876Z,24.43
2023-01-20T20:05:32.682Z,30.60
2023-01-20T20:08:00.225Z,24.60
2023-01-20T20:10:27.710Z,15.93
2023-01-20T20:12:55.230Z,23.93
2023-01-20T20:15:22.725Z,19.77
2023-01-20T20:17:50.254Z,14.17
2023-01-20T20:20:18.394Z,15.97
2023-01-20T20:22:47.448Z,19.27
2023-01-20T20:25:15.014Z,20.87
2023-01-20T20:27:42.546Z,22.00
2023-01-20T20:30:11.436Z,20.03
2023-01-20T20:32:38.945Z,18.03
2023-01-20T20:35:07.228Z,18.07
2023-01-20T20:37:34.831Z,15.77
2023-01-20T20:40:04.032Z,22.13
2023-01-20T20:42:32.532Z,19.63
2023-01-20T20:45:00.027Z,18.67
2023-01-20T20:47:27.511Z,18.63
2023-01-20T20:49:54.990Z,32.10
2023-01-20T20:52:22.446Z,19.40
2023-01-20T20:54:50.545Z,31.37
2023-01-20T20:57:19.389Z,27.73
2023-01-20T20:59:58.559Z,30.73
2023-01-20T21:02:26.931Z,31.20
2023-01-20T21:04:54.958Z,20.40
2023-01-20T21:07:22.416Z,18.37
2023-01-20T21:09:49.900Z,25.27
2023-01-20T21:12:18.901Z,28.90
2023-01-20T21:14:46.412Z,26.57
2023-01-20T21:17:13.916Z,25.77
2023-01-20T21:19:41.403Z,25.60
2023-01-20T21:22:08.932Z,20.00
2023-01-20T21:24:36.400Z,26.27
2023-01-20T21:27:03.977Z,18.33
2023-01-20T21:29:32.814Z,26.23
2023-01-20T21:32:00.573Z,21.63
2023-01-20T21:34:28.050Z,20.37
2023-01-20T21:36:55.562Z,24.77
2023-01-20T21:39:23.548Z,17.37
2023-01-20T21:41:51.045Z,20.30
2023-01-20T21:44:32.841Z,19.10
2023-01-20T21:47:03.697Z,18.77
2023-01-20T21:49:48.859Z,19.93
2023-01-20T21:52:36.396Z,21.90
2023-01-20T21:55:04.713Z,19.63
2023-01-20T21:57:32.671Z,23.13
2023-01-20T22:00:00.548Z,21.97
2023-01-20T22:02:30.045Z,19.17
2023-01-20T22:04:57.633Z,20.10
2023-01-20T22:07:25.295Z,21.93
2023-01-20T22:09:52.837Z,20.47
2023-01-20T22:12:20.337Z,21.90
2023-01-20T22:14:48.016Z,22.27
2023-01-20T22:17:15.541Z,19.27
2023-01-20T22:19:44.708Z,23.47
2023-01-20T22:22:14.898Z,21.67
2023-01-20T22:24:42.805Z,22.40
2023-01-20T22:27:10.354Z,22.67
2023-01-20T22:29:37.829Z,21.20
2023-01-20T22:32:05.809Z,24.87
2023-01-20T22:34:33.397Z,18.87
2023-01-20T22:37:02.202Z,20.83
2023-01-20T22:39:29.764Z,22.10
2023-01-20T22:41:57.301Z,28.10
2023-01-20T22:44:24.942Z,22.57
2023-01-20T22:46:52.477Z,22.87
2023-01-20T22:49:20.124Z,20.10
2023-01-20T22:51:47.596Z,23.67
2023-01-20T22:54:16.408Z,21.83
2023-01-20T22:56:43.913Z,20.27
2023-01-20T22:59:13.195Z,25.97
2023-01-20T23:01:40.723Z,20.13
2023-01-20T23:04:08.222Z,23.60
2023-01-20T23:06:37.223Z,20.63
2023-01-20T23:09:07.227Z,22.03
2023-01-20T23:11:38.240Z,27.17
2023-01-20T23:14:06.424Z,24.77
2023-01-20T23:16:33.948Z,20.77
2023-01-20T23:19:01.489Z,20.80
2023-01-20T23:21:29.799Z,18.97
2023-01-20T23:23:57.289Z,21.50
2023-01-20T23:26:26.818Z,22.00
2023-01-20T23:28:56.416Z,18.77
2023-01-20T23:31:25.616Z,21.13
2023-01-20T23:33:54.463Z,18.60
2023-01-20T23:36:24.073Z,21.80
2023-01-20T23:38:53.476Z,21.03
2023-01-20T23:41:21.039Z,22.80
2023-01-20T23:43:48.762Z,22.73
2023-01-20T23:46:17.620Z,18.43
2023-01-20T23:48:46.584Z,23.60
2023-01-20T23:51:14.662Z,19.23
2023-01-20T23:53:42.230Z,21.67
2023-01-20T23:56:13.197Z,20.77
2023-01-20T23:58:40.857Z,19.50
